createdAt,value
2022-11-23T00:01:53.824Z,97084.34
2022-11-23T00:04:22.427Z,97085.66
2022-11-23T00:06:50.419Z,97087.63
2022-11-23T00:09:18.711Z,97082.81
2022-11-23T00:11:46.728Z,97088.03
2022-11-23T00:14:14.947Z,97077.31
2022-11-23T00:16:43.217Z,97074.03
2022-11-23T00:19:12.711Z,97081.09
2022-11-23T00:21:41.410Z,97066.81
2022-11-23T00:24:11.625Z,97071.03
2022-11-23T00:26:40.176Z,97071.03
2022-11-23T00:29:08.364Z,97069.91
2022-11-23T00:31:36.509Z,97069.53
2022-11-23T00:34:07.281Z,97071.44
2022-11-23T00:36:36.803Z,97061.84
2022-11-23T00:39:04.995Z,97058.69
2022-11-23T00:41:33.106Z,97068.66
2022-11-23T00:44:01.160Z,97064.75
2022-11-23T00:46:29.604Z,97062.88
2022-11-23T00:48:58.397Z,97067.53
2022-11-23T00:51:28.439Z,97063.03
2022-11-23T00:53:58.253Z,97063.50
2022-11-23T00:56:27.047Z,97061.34
2022-11-23T00:58:56.281Z,97061.44
2022-11-23T01:01:25.638Z,97062.59
2022-11-23T01:03:54.803Z,97061.41
2022-11-23T01:06:23.902Z,97063.22
2022-11-23T01:08:54.331Z,97064.44
2022-11-23T01:11:26.056Z,97061.47
2022-11-23T01:13:55.174Z,97061.00
2022-11-23T01:16:24.781Z,97058.34
2022-11-23T01:18:53.549Z,97062.28
2022-11-23T01:21:24.072Z,97063.56
2022-11-23T01:23:52.503Z,97067.56
2022-11-23T01:26:20.630Z,97071.44
2022-11-23T01:28:50.479Z,97075.25
2022-11-23T01:31:19.572Z,97070.25
2022-11-23T01:33:48.185Z,97063.25
2022-11-23T01:36:17.389Z,97069.88
2022-11-23T01:38:48.442Z,97070.22
2022-11-23T01:41:18.148Z,97069.25
2022-11-23T01:43:46.719Z,97069.88
2022-11-23T01:46:16.230Z,97077.81
2022-11-23T01:48:46.552Z,97076.56
2022-11-23T01:51:16.066Z,97081.97
2022-11-23T01:53:46.756Z,97087.41
2022-11-23T01:56:16.293Z,97089.38
2022-11-23T01:58:47.483Z,97094.19
2022-11-23T02:01:17.247Z,97087.69
2022-11-23T02:03:47.210Z,97098.91
2022-11-23T02:06:17.744Z,97098.47
2022-11-23T02:08:46.441Z,97101.81
2022-11-23T02:11:17.529Z,97105.97
2022-11-23T02:13:46.805Z,97101.06
2022-11-23T02:16:15.186Z,97100.38
2022-11-23T02:18:45.894Z,97113.00
2022-11-23T02:21:16.436Z,97107.50
2022-11-23T02:23:55.136Z,97110.47
2022-11-23T02:26:26.822Z,97116.13
2022-11-23T02:29:01.091Z,97106.88
2022-11-23T02:31:32.923Z,97120.97
2022-11-23T02:34:01.483Z,97112.56
2022-11-23T02:36:36.618Z,97112.31
2022-11-23T02:39:12.502Z,97105.06
2022-11-23T02:41:44.766Z,97111.31
2022-11-23T02:44:27.110Z,97103.31
2022-11-23T02:46:55.880Z,97106.22
2022-11-23T02:49:24.414Z,97108.72
2022-11-23T02:51:55.154Z,97109.16
2022-11-23T02:54:27.061Z,97099.97
2022-11-23T02:56:56.705Z,97101.59
2022-11-23T02:59:27.353Z,97103.00
2022-11-23T03:01:55.708Z,97098.38
2022-11-23T03:04:27.900Z,97099.78
2022-11-23T03:06:56.376Z,97106.81
2022-11-23T03:09:28.221Z,97106.13
2022-11-23T03:11:57.677Z,97111.59
2022-11-23T03:14:28.164Z,97112.31
2022-11-23T03:17:02.767Z,97110.31
2022-11-23T03:19:36.048Z,97116.13
2022-11-23T03:22:04.517Z,97106.28
2022-11-23T03:24:32.983Z,97103.03
2022-11-23T03:27:04.750Z,97097.59
2022-11-23T03:29:33.383Z,97101.00
2022-11-23T03:32:06.967Z,97086.88
2022-11-23T03:34:35.386Z,97116.00
2022-11-23T03:37:04.519Z,97111.69
2022-11-23T03:39:33.349Z,97118.03
2022-11-23T03:42:40.253Z,97119.81
2022-11-23T03:45:09.194Z,97116.88
2022-11-23T03:47:37.361Z,97119.13
2022-11-23T03:50:05.754Z,97110.06
2022-11-23T03:52:34.153Z,97103.63
2022-11-23T03:55:02.378Z,97104.38
2022-11-23T03:57:30.570Z,97099.53
2022-11-23T04:00:01.374Z,97098.53
2022-11-23T04:02:29.462Z,97100.22
2022-11-23T04:05:06.139Z,97077.00
2022-11-23T04:07:57.046Z,97084.84
2022-11-23T04:10:26.708Z,97093.03
2022-11-23T04:13:11.997Z,97090.78
2022-11-23T04:15:42.192Z,97092.69
2022-11-23T04:18:11.467Z,97101.69
2022-11-23T04:20:41.165Z,97094.22
2022-11-23T04:23:13.257Z,97095.31
2022-11-23T04:25:44.289Z,97090.44
2022-11-23T04:28:12.769Z,97088.69
2022-11-23T04:30:42.522Z,97086.41
2022-11-23T04:33:11.430Z,97083.75
2022-11-23T04:35:41.762Z,97080.66
2022-11-23T04:38:10.033Z,97077.31
2022-11-23T04:40:38.608Z,97077.16
2022-11-23T04:43:09.492Z,97077.59
2022-11-23T04:45:39.611Z,97092.28
2022-11-23T04:48:13.654Z,97084.56
2022-11-23T04:50:46.616Z,97082.56
2022-11-23T04:53:18.974Z,97079.59
2022-11-23T04:55:48.624Z,97080.63
2022-11-23T04:58:18.053Z,97079.25
2022-11-23T05:00:49.428Z,97085.59
2022-11-23T05:03:19.509Z,97087.13
2022-11-23T05:05:47.665Z,97092.88
2022-11-23T05:08:16.029Z,97086.44
2022-11-23T05:11:08.348Z,97083.75
2022-11-23T05:13:37.961Z,97081.31
2022-11-23T05:16:06.204Z,97077.66
2022-11-23T05:18:35.822Z,97075.72
2022-11-23T05:21:03.985Z,97069.91
2022-11-23T05:23:32.479Z,97074.94
2022-11-23T05:26:01.029Z,97075.22
2022-11-23T05:28:44.551Z,97074.41
2022-11-23T05:31:15.485Z,97068.47
2022-11-23T05:33:47.535Z,97070.13
2022-11-23T05:36:18.238Z,97071.09
2022-11-23T05:38:46.717Z,97075.75
2022-11-23T05:41:21.509Z,97081.41
2022-11-23T05:43:53.383Z,97074.13
2022-11-23T05:46:27.576Z,97073.19
2022-11-23T05:48:57.618Z,97074.81
2022-11-23T05:51:26.501Z,97075.63
2022-11-23T05:53:54.678Z,97081.44
2022-11-23T05:56:45.912Z,97072.47
2022-11-23T05:59:20.472Z,97070.50
2022-11-23T06:01:53.707Z,97066.94
2022-11-23T06:04:29.238Z,97064.84
2022-11-23T06:07:01.040Z,97063.31
2022-11-23T06:09:36.170Z,97078.84
2022-11-23T06:12:08.643Z,97075.50
2022-11-23T06:14:37.218Z,97075.22
2022-11-23T06:17:05.700Z,97083.47
2022-11-23T06:19:39.650Z,97087.63
2022-11-23T06:22:07.770Z,97086.16
2022-11-23T06:24:43.442Z,97094.63
2022-11-23T06:27:38.571Z,97095.22
2022-11-23T06:30:16.412Z,97087.50
2022-11-23T06:32:44.961Z,97089.09
2022-11-23T06:35:16.962Z,97097.06
2022-11-23T06:37:45.851Z,97090.81
2022-11-23T06:40:16.589Z,97092.09
2022-11-23T06:42:44.684Z,97090.88
2022-11-23T06:45:19.281Z,97093.13
2022-11-23T06:47:49.623Z,97103.09
2022-11-23T06:50:20.058Z,97092.75
2022-11-23T06:52:49.618Z,97107.00
2022-11-23T06:55:18.863Z,97094.91
2022-11-23T06:57:48.218Z,97097.13
2022-11-23T07:00:16.740Z,97105.88
2022-11-23T07:02:45.983Z,97101.22
2022-11-23T07:05:16.845Z,97096.84
2022-11-23T07:07:47.223Z,97096.84
2022-11-23T07:10:21.754Z,97100.78
2022-11-23T07:12:53.526Z,97104.25
2022-11-23T07:15:23.067Z,97092.28
2022-11-23T07:17:53.513Z,97098.94
2022-11-23T07:20:23.322Z,97106.09
2022-11-23T07:23:01.729Z,97100.69
2022-11-23T07:25:30.251Z,97103.97
2022-11-23T07:28:02.217Z,97098.16
2022-11-23T07:30:33.566Z,97098.72
2022-11-23T07:33:02.498Z,97097.34
2022-11-23T07:35:32.712Z,97111.63
2022-11-23T07:38:02.162Z,97100.81
2022-11-23T07:40:30.476Z,97111.28
2022-11-23T07:43:02.554Z,97105.44
2022-11-23T07:45:30.853Z,97108.72
2022-11-23T07:48:01.504Z,97111.78
2022-11-23T07:50:30.212Z,97106.78
2022-11-23T07:52:58.249Z,97109.38
2022-11-23T07:55:28.477Z,97108.88
2022-11-23T07:57:56.614Z,97111.94
2022-11-23T08:00:25.839Z,97117.03
2022-11-23T08:03:25.667Z,97112.38
2022-11-23T08:05:42.135Z,97119.97
2022-11-23T08:08:10.193Z,97121.31
2022-11-23T08:10:44.408Z,97115.63
2022-11-23T08:13:14.345Z,97119.69
2022-11-23T08:15:42.526Z,97113.41
2022-11-23T08:18:10.638Z,97117.22
2022-11-23T08:20:38.794Z,97115.16
2022-11-23T08:23:06.813Z,97117.28
2022-11-23T08:25:35.041Z,97116.09
2022-11-23T08:28:05.226Z,97112.72
2022-11-23T08:30:33.623Z,97110.00
2022-11-23T08:33:03.710Z,97103.34
2022-11-23T08:35:31.751Z,97101.91
2022-11-23T08:37:59.855Z,97098.66
2022-11-23T08:40:28.095Z,97096.97
2022-11-23T08:42:56.281Z,97099.63
2022-11-23T08:45:25.655Z,97091.69
2022-11-23T08:47:54.090Z,97099.69
2022-11-23T08:50:22.748Z,97091.06
2022-11-23T08:52:55.578Z,97106.09
2022-11-23T08:55:23.670Z,97106.38
2022-11-23T08:57:51.839Z,97109.19
2022-11-23T09:00:20.575Z,97113.34
2022-11-23T09:02:50.011Z,97109.47
2022-11-23T09:05:18.202Z,97114.28
2022-11-23T09:07:46.439Z,97103.09
2022-11-23T09:10:18.279Z,97122.03
2022-11-23T09:12:47.321Z,97119.44
2022-11-23T09:15:15.903Z,97103.41
2022-11-23T09:17:44.009Z,97107.34
2022-11-23T09:20:13.949Z,97100.75
2022-11-23T09:22:42.097Z,97096.88
2022-11-23T09:25:10.395Z,97104.69
2022-11-23T09:27:38.490Z,97108.41
2022-11-23T09:30:07.150Z,97109.69
2022-11-23T09:32:35.244Z,97105.13
2022-11-23T09:35:03.313Z,97116.28
2022-11-23T09:37:32.704Z,97110.09
2022-11-23T09:40:00.847Z,97107.69
2022-11-23T09:42:42.812Z,97113.31
2022-11-23T09:45:17.394Z,97116.91
2022-11-23T09:48:02.178Z,97110.22
2022-11-23T09:50:35.545Z,97105.38
2022-11-23T09:53:08.530Z,97102.44
2022-11-23T09:55:39.036Z,97109.50
2022-11-23T09:58:14.811Z,97108.16
2022-11-23T10:00:45.292Z,97099.13
2022-11-23T10:03:15.718Z,97101.94
2022-11-23T10:05:45.806Z,97099.63
2022-11-23T10:08:21.660Z,97107.94
2022-11-23T10:10:54.146Z,97105.22
2022-11-23T10:13:29.763Z,97099.28
2022-11-23T10:16:16.157Z,97092.38
2022-11-23T10:18:49.835Z,97092.25
2022-11-23T10:21:21.909Z,97093.06
2022-11-23T10:23:56.463Z,97088.78
2022-11-23T10:26:29.174Z,97090.16
2022-11-23T10:28:59.708Z,97090.63
2022-11-23T10:31:29.535Z,97090.97
2022-11-23T10:34:03.959Z,97095.16
2022-11-23T10:36:32.016Z,97095.72
2022-11-23T10:39:01.700Z,97098.41
2022-11-23T10:41:30.917Z,97101.22
2022-11-23T10:44:03.342Z,97094.91
2022-11-23T10:46:32.536Z,97099.03
2022-11-23T10:49:11.134Z,97095.09
2022-11-23T10:51:39.578Z,97083.22
2022-11-23T10:54:22.268Z,97089.34
2022-11-23T10:56:51.530Z,97087.81
2022-11-23T10:59:30.061Z,97091.50
2022-11-23T11:02:25.556Z,97088.72
2022-11-23T11:05:13.567Z,97088.78
2022-11-23T11:07:41.856Z,97101.16
2022-11-23T11:10:31.537Z,97093.66
2022-11-23T11:12:59.678Z,97087.03
2022-11-23T11:15:28.534Z,97094.16
2022-11-23T11:17:57.830Z,97089.06
2022-11-23T11:20:34.193Z,97080.28
2022-11-23T11:23:04.102Z,97082.97
2022-11-23T11:25:37.378Z,97078.22
2022-11-23T11:28:07.405Z,97078.22
2022-11-23T11:30:42.683Z,97085.22
2022-11-23T11:33:12.744Z,97083.13
2022-11-23T11:35:43.306Z,97077.19
2022-11-23T11:38:14.330Z,97058.97
2022-11-23T11:40:47.679Z,97069.22
2022-11-23T11:43:19.267Z,97074.72
2022-11-23T11:46:21.425Z,97073.69
2022-11-23T11:48:38.663Z,97069.06
2022-11-23T11:51:09.328Z,97058.81
2022-11-23T11:53:39.781Z,97059.34
2022-11-23T11:56:16.130Z,97066.22
2022-11-23T11:58:46.033Z,97062.06
2022-11-23T12:01:30.074Z,97064.16
2022-11-23T12:04:02.218Z,97048.59
2022-11-23T12:06:34.281Z,97049.16
2022-11-23T12:09:08.058Z,97047.34
2022-11-23T12:11:37.546Z,97049.75
2022-11-23T12:14:06.910Z,97050.09
2022-11-23T12:16:40.286Z,97046.22
2022-11-23T12:19:11.187Z,97048.59
2022-11-23T12:21:55.864Z,97043.06
2022-11-23T12:24:29.413Z,97054.88
2022-11-23T12:27:03.621Z,97054.66
2022-11-23T12:29:46.625Z,97053.97
2022-11-23T12:32:21.948Z,97042.22
2022-11-23T12:35:10.681Z,97038.34
2022-11-23T12:37:45.162Z,97035.50
2022-11-23T12:40:31.152Z,97033.81
2022-11-23T12:43:03.246Z,97025.81
2022-11-23T12:45:40.310Z,97029.34
2022-11-23T12:48:23.040Z,97034.75
2022-11-23T12:50:56.229Z,97042.34
2022-11-23T12:53:32.304Z,97022.84
2022-11-23T12:56:04.685Z,97032.00
2022-11-23T12:58:35.324Z,97026.84
2022-11-23T13:01:06.963Z,97020.91
2022-11-23T13:03:53.722Z,97026.59
2022-11-23T13:06:30.462Z,97015.47
2022-11-23T13:09:06.794Z,97014.50
2022-11-23T13:11:43.085Z,97021.50
2022-11-23T13:14:17.608Z,97016.63
2022-11-23T13:16:59.554Z,96996.25
2022-11-23T13:19:35.550Z,97013.69
2022-11-23T13:22:07.074Z,96995.03
2022-11-23T13:24:36.439Z,97005.97
2022-11-23T13:27:24.765Z,96998.91
2022-11-23T13:30:01.118Z,96993.28
2022-11-23T13:32:35.857Z,96998.59
2022-11-23T13:35:03.953Z,96997.31
2022-11-23T13:37:31.941Z,96997.50
2022-11-23T13:40:04.784Z,96995.25
2022-11-23T13:42:34.709Z,96988.03
2022-11-23T13:45:24.767Z,96985.56
2022-11-23T13:48:06.695Z,96981.03
2022-11-23T13:50:35.045Z,96963.63
2022-11-23T13:53:03.465Z,96963.22
2022-11-23T13:55:35.378Z,96961.63
2022-11-23T13:58:22.192Z,96957.97
2022-11-23T14:00:55.234Z,96955.66
2022-11-23T14:03:41.833Z,96958.56
2022-11-23T14:06:14.153Z,96952.34
2022-11-23T14:08:43.231Z,96943.13
2022-11-23T14:11:12.779Z,96954.13
2022-11-23T14:13:41.833Z,96944.81
2022-11-23T14:16:12.821Z,96936.78
2022-11-23T14:18:55.995Z,96941.69
2022-11-23T14:21:32.747Z,96943.06
2022-11-23T14:24:15.760Z,96938.38
2022-11-23T14:26:50.149Z,96930.72
2022-11-23T14:29:29.329Z,96926.72
2022-11-23T14:32:11.836Z,96932.31
2022-11-23T14:34:45.173Z,96926.13
2022-11-23T14:37:18.446Z,96909.28
2022-11-23T14:40:00.466Z,96912.81
2022-11-23T14:42:29.754Z,96917.69
2022-11-23T14:45:01.879Z,96905.44
2022-11-23T14:47:32.135Z,96906.03
2022-11-23T14:50:00.421Z,96903.69
2022-11-23T14:52:29.278Z,96894.56
2022-11-23T14:54:59.764Z,96889.41
2022-11-23T14:57:30.539Z,96893.81
2022-11-23T15:00:00.119Z,96886.28
2022-11-23T15:02:34.349Z,96890.56
2022-11-23T15:05:07.427Z,96888.91
2022-11-23T15:07:42.969Z,96892.78
2022-11-23T15:10:19.062Z,96895.75
2022-11-23T15:12:48.235Z,96896.81
2022-11-23T15:15:19.330Z,96900.88
2022-11-23T15:17:53.891Z,96890.28
2022-11-23T15:20:24.215Z,96896.06
2022-11-23T15:22:52.503Z,96896.94
2022-11-23T15:25:20.609Z,96888.00
2022-11-23T15:27:49.670Z,96894.53
2022-11-23T15:30:19.601Z,96900.34
2022-11-23T15:32:56.143Z,96892.34
2022-11-23T15:35:29.617Z,96891.22
2022-11-23T15:37:57.856Z,96890.69
2022-11-23T15:40:28.413Z,96888.66
2022-11-23T15:42:56.515Z,96892.19
2022-11-23T15:45:38.448Z,96894.06
2022-11-23T15:48:07.868Z,96896.34
2022-11-23T15:50:37.766Z,96899.69
2022-11-23T15:53:05.966Z,96897.81
2022-11-23T15:55:34.028Z,96905.81
2022-11-23T15:58:07.601Z,96905.41
2022-11-23T16:00:35.719Z,96915.34
2022-11-23T16:03:18.592Z,96914.13
2022-11-23T16:06:07.992Z,96914.13
2022-11-23T16:08:37.494Z,96931.00
2022-11-23T16:11:05.999Z,96930.66
2022-11-23T16:13:36.062Z,96930.81
2022-11-23T16:16:06.765Z,96929.09
2022-11-23T16:18:35.544Z,96930.91
2022-11-23T16:21:05.878Z,96938.66
2022-11-23T16:23:44.222Z,96941.28
2022-11-23T16:26:13.120Z,96941.53
2022-11-23T16:28:48.788Z,96949.06
2022-11-23T16:31:27.958Z,96956.75
2022-11-23T16:33:56.142Z,96957.13
2022-11-23T16:36:27.471Z,96968.41
2022-11-23T16:38:59.615Z,96971.94
2022-11-23T16:41:29.141Z,96979.38
2022-11-23T16:43:57.169Z,96991.47
2022-11-23T16:46:25.253Z,96988.09
2022-11-23T16:48:54.343Z,96995.72
2022-11-23T16:51:22.444Z,96998.16
2022-11-23T16:54:12.889Z,96997.53
2022-11-23T16:56:41.303Z,97008.56
2022-11-23T16:59:15.486Z,97003.69
2022-11-23T17:01:45.940Z,97010.13
2022-11-23T17:04:15.232Z,97014.78
2022-11-23T17:06:43.469Z,97011.19
2022-11-23T17:09:15.074Z,97013.81
2022-11-23T17:11:44.402Z,97031.06
2022-11-23T17:14:18.486Z,97026.69
2022-11-23T17:16:47.703Z,97036.59
2022-11-23T17:19:16.381Z,97037.81
2022-11-23T17:21:44.570Z,97037.50
2022-11-23T17:24:12.988Z,97038.38
2022-11-23T17:26:44.084Z,97043.28
2022-11-23T17:29:13.979Z,97042.72
2022-11-23T17:31:43.379Z,97046.22
2022-11-23T17:34:11.424Z,97050.94
2022-11-23T17:36:39.567Z,97059.81
2022-11-23T17:39:07.959Z,97067.31
2022-11-23T17:41:36.067Z,97061.69
2022-11-23T17:44:10.860Z,97070.09
2022-11-23T17:46:39.003Z,97074.41
2022-11-23T17:49:08.132Z,97076.19
2022-11-23T17:51:36.214Z,97064.47
2022-11-23T17:54:04.322Z,97083.03
2022-11-23T17:56:32.620Z,97088.69
2022-11-23T17:59:00.705Z,97087.59
2022-11-23T18:01:30.535Z,97082.91
2022-11-23T18:04:01.010Z,97086.66
2022-11-23T18:06:29.652Z,97085.44
2022-11-23T18:08:58.067Z,97092.41
2022-11-23T18:11:26.315Z,97098.50
2022-11-23T18:13:55.157Z,97092.31
2022-11-23T18:16:23.828Z,97087.34
2022-11-23T18:18:53.362Z,97095.19
2022-11-23T18:21:23.886Z,97103.94
2022-11-23T18:23:52.108Z,97100.81
2022-11-23T18:26:21.471Z,97108.88
2022-11-23T18:28:49.961Z,97125.00
2022-11-23T18:31:18.525Z,97126.28
2022-11-23T18:33:46.779Z,97125.13
2022-11-23T18:36:18.682Z,97130.72
2022-11-23T18:38:46.745Z,97141.25
2022-11-23T18:41:16.439Z,97144.53
2022-11-23T18:43:45.217Z,97150.28
2022-11-23T18:46:18.935Z,97145.63
2022-11-23T18:48:47.876Z,97146.56
2022-11-23T18:51:16.398Z,97149.94
2022-11-23T18:53:50.129Z,97153.88
2022-11-23T18:56:21.198Z,97160.28
2022-11-23T18:58:49.360Z,97152.91
2022-11-23T19:01:18.781Z,97154.63
2022-11-23T19:03:49.313Z,97165.19
2022-11-23T19:06:18.753Z,97165.09
2022-11-23T19:08:49.126Z,97167.25
2022-11-23T19:11:19.628Z,97171.31
2022-11-23T19:13:48.458Z,97179.09
2022-11-23T19:16:17.609Z,97185.53
2022-11-23T19:18:45.657Z,97194.59
2022-11-23T19:21:14.305Z,97194.34
2022-11-23T19:23:44.275Z,97200.16
2022-11-23T19:26:16.320Z,97202.38
2022-11-23T19:28:45.779Z,97211.91
2022-11-23T19:31:15.033Z,97224.88
2022-11-23T19:33:43.761Z,97225.69
2022-11-23T19:36:16.078Z,97227.22
2022-11-23T19:38:44.550Z,97234.28
2022-11-23T19:41:14.073Z,97231.06
2022-11-23T19:43:42.819Z,97231.91
2022-11-23T19:46:12.503Z,97237.00
2022-11-23T19:48:41.914Z,97247.41
2022-11-23T19:51:12.651Z,97252.47
2022-11-23T19:53:41.822Z,97263.09
2022-11-23T19:56:12.291Z,97265.25
2022-11-23T19:58:42.115Z,97264.88
2022-11-23T20:01:15.106Z,97267.19
2022-11-23T20:03:44.912Z,97267.59
2022-11-23T20:06:21.018Z,97291.41
2022-11-23T20:08:58.352Z,97294.22
2022-11-23T20:11:29.975Z,97292.69
2022-11-23T20:14:00.180Z,97295.47
2022-11-23T20:16:36.176Z,97318.13
2022-11-23T20:19:11.389Z,97317.84
2022-11-23T20:21:42.885Z,97334.81
2022-11-23T20:24:13.647Z,97350.63
2022-11-23T20:26:45.484Z,97342.56
2022-11-23T20:29:15.218Z,97352.22
2022-11-23T20:31:45.046Z,97361.28
2022-11-23T20:34:32.706Z,97377.91
2022-11-23T20:37:01.502Z,97380.69
2022-11-23T20:39:32.940Z,97393.50
2022-11-23T20:42:01.750Z,97402.63
2022-11-23T20:44:41.681Z,97409.44
2022-11-23T20:47:10.380Z,97409.75
2022-11-23T20:49:38.657Z,97417.72
2022-11-23T20:52:06.899Z,97412.03
2022-11-23T20:54:36.095Z,97426.59
2022-11-23T20:57:04.964Z,97428.28
2022-11-23T20:59:34.494Z,97441.97
2022-11-23T21:02:04.760Z,97444.44
2022-11-23T21:04:33.268Z,97449.34
2022-11-23T21:07:02.266Z,97457.72
2022-11-23T21:09:33.173Z,97462.81
2022-11-23T21:12:19.126Z,97461.88
2022-11-23T21:14:47.319Z,97467.25
2022-11-23T21:17:16.832Z,97471.66
2022-11-23T21:19:44.892Z,97475.16
2022-11-23T21:22:14.347Z,97483.88
2022-11-23T21:24:42.687Z,97483.66
2022-11-23T21:27:12.944Z,97488.00
2022-11-23T21:29:41.064Z,97490.22
2022-11-23T21:32:09.115Z,97501.06
2022-11-23T21:34:38.601Z,97501.84
2022-11-23T21:37:06.833Z,97513.66
2022-11-23T21:39:34.921Z,97516.13
2022-11-23T21:42:03.580Z,97516.25
2022-11-23T21:44:32.076Z,97509.69
2022-11-23T21:47:00.658Z,97508.66
2022-11-23T21:49:29.734Z,97514.13
2022-11-23T21:51:59.162Z,97523.63
2022-11-23T21:54:27.305Z,97528.38
2022-11-23T21:56:55.603Z,97522.16
2022-11-23T22:02:38.123Z,97527.47
2022-11-23T22:05:06.520Z,97530.56
2022-11-23T22:07:35.543Z,97530.53
2022-11-23T22:10:03.644Z,97529.84
2022-11-23T22:12:31.681Z,97532.28
2022-11-23T22:14:59.678Z,97536.31
2022-11-23T22:17:27.768Z,97540.28
2022-11-23T22:19:57.246Z,97543.78
2022-11-23T22:22:25.208Z,97545.97
2022-11-23T22:24:53.262Z,97547.56
2022-11-23T22:27:21.293Z,97545.78
2022-11-23T22:29:49.988Z,97555.75
2022-11-23T22:32:18.389Z,97554.06
2022-11-23T22:34:46.541Z,97558.19
2022-11-23T22:37:16.070Z,97564.81
2022-11-23T22:39:44.131Z,97569.16
2022-11-23T22:42:12.261Z,97563.66
2022-11-23T22:44:40.350Z,97574.06
2022-11-23T22:47:08.524Z,97581.03
2022-11-23T22:49:36.563Z,97572.56
2022-11-23T22:52:04.751Z,97579.22
2022-11-23T22:54:34.484Z,97584.13
2022-11-23T22:57:02.856Z,97589.88
2022-11-23T22:59:32.985Z,97593.53
2022-11-23T23:02:01.031Z,97599.72
2022-11-23T23:04:29.345Z,97595.69
2022-11-23T23:06:57.655Z,97600.78
2022-11-23T23:09:25.755Z,97607.81
2022-11-23T23:11:55.204Z,97602.03
2022-11-23T23:14:23.202Z,97603.81
2022-11-23T23:16:52.416Z,97605.31
2022-11-23T23:19:20.485Z,97608.38
2022-11-23T23:21:48.544Z,97600.06
2022-11-23T23:24:16.634Z,97613.25
2022-11-23T23:26:44.632Z,97607.75
2022-11-23T23:29:14.730Z,97617.69
2022-11-23T23:31:42.807Z,97621.22
2022-11-23T23:34:10.869Z,97609.97
2022-11-23T23:36:39.194Z,97622.63
2022-11-23T23:39:07.242Z,97609.06
2022-11-23T23:41:35.336Z,97632.00
2022-11-23T23:44:03.356Z,97636.22
2022-11-23T23:46:32.746Z,97629.66
2022-11-23T23:49:01.589Z,97634.50
2022-11-23T23:51:29.651Z,97638.25
2022-11-23T23:53:58.211Z,97644.34
2022-11-23T23:56:27.025Z,97637.09
2022-11-23T23:58:57.758Z,97640.50
